createdAt,value
2018-11-20T00:00:10.746Z,6.90
2018-11-20T00:03:09.404Z,7.20
2018-11-20T00:06:10.367Z,7.23
2018-11-20T00:09:03.194Z,7.13
2018-11-20T00:11:55.250Z,7.83
2018-11-20T00:14:48.796Z,7.13
2018-11-20T00:17:33.618Z,7.83
2018-11-20T00:20:25.325Z,7.60
2018-11-20T00:23:24.196Z,7.13
2018-11-20T00:26:21.854Z,7.90
2018-11-20T00:29:19.914Z,7.83
2018-11-20T00:34:51.708Z,7.77
2018-11-20T00:40:28.837Z,7.83
2018-11-20T00:45:50.301Z,8.40
2018-11-20T00:51:15.075Z,8.63
2018-11-20T00:54:10.783Z,8.30
2018-11-20T00:57:08.205Z,9.10
2018-11-20T01:00:07.552Z,9.00
2018-11-20T01:03:01.934Z,9.13
2018-11-20T01:08:21.475Z,9.57
2018-11-20T01:13:49.932Z,10.13
2018-11-20T01:16:51.739Z,9.07
2018-11-20T01:20:02.099Z,9.53
2018-11-20T01:22:49.492Z,9.60
2018-11-20T01:25:43.492Z,9.80
2018-11-20T01:28:32.423Z,9.97
2018-11-20T01:31:30.695Z,9.43
2018-11-20T01:34:03.449Z,9.93
2018-11-20T01:36:56.896Z,9.23
2018-11-20T01:39:48.759Z,9.87
2018-11-20T01:42:48.149Z,10.17
2018-11-20T01:45:42.224Z,10.83
2018-11-20T01:48:31.344Z,10.83
2018-11-20T01:51:28.394Z,10.87
2018-11-20T01:54:24.201Z,10.90
2018-11-20T01:57:27.721Z,10.73
2018-11-20T02:00:31.332Z,10.77
2018-11-20T02:05:58.652Z,11.10
2018-11-20T02:08:59.522Z,10.83
2018-11-20T02:12:05.211Z,10.63
2018-11-20T02:15:17.982Z,10.43
2018-11-20T02:18:11.093Z,11.37
2018-11-20T02:20:59.993Z,11.83
2018-11-20T02:23:56.045Z,11.60
2018-11-20T02:26:57.515Z,11.97
2018-11-20T02:29:47.866Z,11.73
2018-11-20T02:32:42.808Z,12.67
2018-11-20T02:35:36.268Z,11.43
2018-11-20T02:38:39.882Z,12.00
2018-11-20T02:41:27.036Z,12.10
2018-11-20T02:44:28.045Z,12.93
2018-11-20T02:47:33.319Z,14.00
2018-11-20T02:50:32.000Z,11.50
2018-11-20T02:53:24.273Z,12.10
2018-11-20T02:56:17.983Z,12.80
2018-11-20T02:59:26.373Z,12.10
2018-11-20T03:01:59.179Z,13.30
2018-11-20T03:05:13.324Z,13.07
2018-11-20T03:08:09.138Z,13.67
2018-11-20T03:11:02.006Z,12.67
2018-11-20T03:14:15.488Z,13.67
2018-11-20T03:17:03.521Z,12.97
2018-11-20T03:19:56.246Z,12.47
2018-11-20T03:22:52.684Z,12.73
2018-11-20T03:25:25.519Z,12.03
2018-11-20T03:28:39.238Z,13.00
2018-11-20T03:31:34.924Z,12.83
2018-11-20T03:34:24.263Z,12.10
2018-11-20T03:37:13.353Z,12.93
2018-11-20T03:40:07.491Z,12.53
2018-11-20T03:43:04.777Z,11.93
2018-11-20T03:48:44.753Z,12.77
2018-11-20T03:51:43.503Z,12.57
2018-11-20T03:54:38.690Z,12.23
2018-11-20T03:57:37.573Z,12.77
2018-11-20T04:00:32.382Z,11.80
2018-11-20T04:05:49.970Z,12.93
2018-11-20T04:08:43.202Z,12.00
2018-11-20T04:11:26.026Z,12.67
2018-11-20T04:14:18.286Z,12.40
2018-11-20T04:17:08.727Z,12.77
2018-11-20T04:22:31.211Z,12.23
2018-11-20T04:25:32.335Z,12.63
2018-11-20T04:30:46.095Z,12.43
2018-11-20T04:34:09.251Z,12.43
2018-11-20T04:39:41.677Z,12.70
2018-11-20T04:45:01.466Z,12.30
2018-11-20T04:47:59.216Z,12.13
2018-11-20T04:50:50.379Z,11.50
2018-11-20T04:53:54.029Z,12.37
2018-11-20T04:56:51.665Z,12.73
2018-11-20T04:59:46.840Z,12.43
2018-11-20T05:02:42.083Z,12.50
2018-11-20T05:08:05.563Z,12.17
2018-11-20T05:10:49.596Z,11.73
2018-11-20T05:13:56.099Z,12.17
2018-11-20T05:19:15.607Z,11.80
2018-11-20T05:24:31.945Z,12.67
2018-11-20T05:27:24.899Z,12.33
2018-11-20T05:30:22.833Z,12.13
2018-11-20T05:33:14.330Z,11.83
2018-11-20T05:36:18.206Z,11.27
2018-11-20T05:38:51.190Z,11.97
2018-11-20T05:44:28.292Z,12.53
2018-11-20T05:47:20.135Z,12.37
2018-11-20T05:50:26.411Z,12.13
2018-11-20T05:52:57.559Z,11.87
2018-11-20T05:55:50.447Z,13.90
2018-11-20T05:58:42.453Z,12.60
2018-11-20T06:04:20.103Z,12.67
2018-11-20T06:07:24.706Z,12.50
2018-11-20T06:10:15.953Z,13.53
2018-11-20T06:13:10.748Z,12.70
2018-11-20T06:15:58.223Z,12.50
2018-11-20T06:18:58.642Z,12.90
2018-11-20T06:21:50.128Z,13.40
2018-11-20T06:27:45.030Z,13.67
2018-11-20T06:30:29.432Z,14.30
2018-11-20T06:33:31.576Z,12.90
2018-11-20T06:36:23.515Z,13.37
2018-11-20T06:39:09.515Z,13.27
2018-11-20T06:42:00.711Z,14.00
2018-11-20T06:44:53.369Z,12.97
2018-11-20T06:47:46.608Z,14.67
2018-11-20T06:50:46.820Z,13.37
2018-11-20T06:53:41.417Z,14.47
2018-11-20T06:56:40.503Z,13.80
2018-11-20T06:59:38.456Z,13.77
2018-11-20T07:02:36.847Z,12.80
2018-11-20T07:05:36.201Z,14.50
2018-11-20T07:08:29.559Z,14.23
2018-11-20T07:14:19.077Z,13.73
2018-11-20T07:17:12.339Z,13.67
2018-11-20T07:20:14.940Z,14.53
2018-11-20T07:23:19.941Z,12.57
2018-11-20T07:26:01.985Z,13.93
2018-11-20T07:28:55.438Z,14.00
2018-11-20T07:31:44.408Z,14.00
2018-11-20T07:34:45.303Z,13.30
2018-11-20T07:37:36.495Z,14.50
2018-11-20T07:40:46.317Z,15.33
2018-11-20T07:43:48.027Z,14.07
2018-11-20T07:46:47.729Z,13.83
2018-11-20T07:49:37.862Z,15.33
2018-11-20T07:55:04.010Z,15.33
2018-11-20T07:57:45.810Z,13.97
2018-11-20T08:03:49.006Z,15.53
2018-11-20T08:06:24.827Z,16.13
2018-11-20T08:09:16.034Z,16.63
2018-11-20T08:12:12.249Z,15.40
2018-11-20T08:14:59.787Z,16.00
2018-11-20T08:17:52.480Z,15.50
2018-11-20T08:20:46.220Z,15.43
2018-11-20T08:23:36.903Z,15.20
2018-11-20T08:26:30.834Z,16.10
2018-11-20T08:29:20.653Z,16.13
2018-11-20T08:32:07.933Z,16.03
2018-11-20T08:34:59.936Z,16.27
2018-11-20T08:37:52.977Z,17.27
2018-11-20T08:43:02.950Z,16.90
2018-11-20T08:45:54.473Z,18.33
2018-11-20T08:48:40.944Z,16.90
2018-11-20T08:54:45.170Z,17.03
2018-11-20T08:57:33.848Z,17.93
2018-11-20T09:00:40.033Z,16.47
2018-11-20T09:03:36.175Z,17.87
2018-11-20T09:09:13.289Z,18.47
2018-11-20T09:12:25.931Z,17.90
2018-11-20T09:15:19.697Z,18.33
2018-11-20T09:18:11.696Z,18.57
2018-11-20T09:21:04.809Z,18.97
2018-11-20T09:26:29.126Z,18.83
2018-11-20T09:29:32.362Z,18.17
2018-11-20T09:32:15.884Z,19.10
2018-11-20T09:35:11.130Z,18.10
2018-11-20T09:38:19.587Z,18.73
2018-11-20T09:41:03.414Z,18.20
2018-11-20T09:44:07.475Z,17.80
2018-11-20T09:47:03.494Z,18.70
2018-11-20T09:49:53.920Z,18.60
2018-11-20T09:52:48.432Z,16.87
2018-11-20T09:55:32.943Z,18.27
2018-11-20T09:58:43.384Z,17.03
2018-11-20T10:01:42.493Z,18.30
2018-11-20T10:04:25.383Z,18.07
2018-11-20T10:07:22.410Z,17.93
2018-11-20T10:12:59.848Z,18.10
2018-11-20T10:15:48.944Z,16.63
2018-11-20T10:18:53.116Z,18.27
2018-11-20T10:21:42.530Z,17.37
2018-11-20T10:24:36.868Z,17.00
2018-11-20T10:27:33.373Z,17.60
2018-11-20T10:30:29.758Z,17.47
2018-11-20T10:33:22.616Z,17.57
2018-11-20T10:36:27.661Z,18.00
2018-11-20T10:39:19.381Z,17.53
2018-11-20T10:42:16.877Z,16.10
2018-11-20T10:45:07.681Z,15.67
2018-11-20T10:48:00.976Z,16.80
2018-11-20T10:50:34.455Z,16.10
2018-11-20T10:53:18.517Z,16.33
2018-11-20T10:56:16.995Z,17.17
2018-11-20T10:59:13.356Z,16.73
2018-11-20T11:02:01.541Z,16.40
2018-11-20T11:04:45.346Z,16.63
2018-11-20T11:07:39.598Z,17.30
2018-11-20T11:10:53.692Z,16.87
2018-11-20T11:13:55.230Z,15.63
2018-11-20T11:17:02.617Z,16.80
2018-11-20T11:19:32.689Z,17.63
2018-11-20T11:22:19.234Z,16.67
2018-11-20T11:25:23.327Z,16.27
2018-11-20T11:30:38.019Z,16.50
2018-11-20T11:33:42.905Z,17.40
2018-11-20T11:36:34.639Z,16.00
2018-11-20T11:39:25.093Z,16.43
2018-11-20T11:42:13.493Z,16.90
2018-11-20T11:45:15.994Z,16.50
2018-11-20T11:48:03.791Z,16.97
2018-11-20T11:50:59.707Z,16.47
2018-11-20T11:53:29.865Z,16.77
2018-11-20T11:56:23.940Z,18.30
2018-11-20T11:59:18.575Z,17.20
2018-11-20T12:05:06.345Z,17.27
2018-11-20T12:08:05.675Z,16.17
2018-11-20T12:10:56.983Z,18.07
2018-11-20T12:13:50.004Z,16.47
2018-11-20T12:16:40.732Z,17.93
2018-11-20T12:19:32.075Z,16.43
2018-11-20T12:22:26.731Z,16.67
2018-11-20T12:25:20.219Z,17.50
2018-11-20T12:28:21.069Z,17.73
2018-11-20T12:31:03.754Z,17.17
2018-11-20T12:34:11.650Z,18.20
2018-11-20T12:37:19.596Z,18.63
2018-11-20T12:42:41.048Z,17.13
2018-11-20T12:45:34.343Z,17.23
2018-11-20T12:48:29.142Z,18.40
2018-11-20T12:51:22.606Z,17.23
2018-11-20T12:56:46.687Z,16.87
2018-11-20T12:59:41.361Z,17.30
2018-11-20T13:02:12.029Z,17.77
2018-11-20T13:05:11.299Z,17.70
2018-11-20T13:08:03.488Z,17.83
2018-11-20T13:11:02.660Z,17.40
2018-11-20T13:13:50.204Z,17.90
2018-11-20T13:16:54.739Z,17.17
2018-11-20T13:20:03.901Z,16.97
2018-11-20T13:25:34.475Z,18.17
2018-11-20T13:30:58.654Z,17.93
2018-11-20T13:33:47.969Z,18.57
2018-11-20T13:36:49.559Z,17.47
2018-11-20T13:42:26.592Z,18.07
2018-11-20T13:45:21.363Z,17.60
2018-11-20T13:48:12.105Z,17.93
2018-11-20T13:51:16.751Z,17.23
2018-11-20T13:54:29.511Z,17.93
2018-11-20T13:57:27.201Z,17.37
2018-11-20T14:00:19.974Z,17.80
2018-11-20T14:03:34.096Z,17.87
2018-11-20T14:06:27.152Z,17.70
2018-11-20T14:09:00.321Z,18.90
2018-11-20T14:11:50.522Z,18.80
2018-11-20T14:14:35.988Z,17.50
2018-11-20T14:17:50.731Z,18.17
2018-11-20T14:20:49.818Z,18.40
2018-11-20T14:23:39.119Z,18.37
2018-11-20T14:26:22.930Z,19.20
2018-11-20T14:32:03.269Z,17.93
2018-11-20T14:34:54.433Z,18.03
2018-11-20T14:37:48.996Z,18.33
2018-11-20T14:40:42.391Z,17.80
2018-11-20T14:43:52.897Z,17.77
2018-11-20T14:46:45.006Z,19.33
2018-11-20T14:49:31.527Z,18.37
2018-11-20T14:52:26.657Z,18.03
2018-11-20T14:55:25.350Z,19.03
2018-11-20T14:58:15.169Z,20.37
2018-11-20T15:01:20.512Z,19.50
2018-11-20T15:04:15.023Z,20.10
2018-11-20T15:07:14.187Z,19.30
2018-11-20T15:09:49.910Z,19.67
2018-11-20T15:12:59.123Z,19.50
2018-11-20T15:15:52.262Z,19.13
2018-11-20T15:18:47.300Z,19.77
2018-11-20T15:21:41.830Z,19.17
2018-11-20T15:24:33.725Z,19.53
2018-11-20T15:27:28.577Z,19.00
2018-11-20T15:30:19.773Z,19.10
2018-11-20T15:33:05.241Z,18.27
2018-11-20T15:35:56.479Z,18.60
2018-11-20T15:38:49.192Z,20.37
2018-11-20T15:41:34.708Z,18.90
2018-11-20T15:44:26.022Z,17.67
2018-11-20T15:47:39.298Z,18.70
2018-11-20T15:50:50.280Z,18.70
2018-11-20T15:54:05.994Z,18.70
2018-11-20T16:02:17.723Z,17.93
2018-11-20T16:05:18.422Z,18.17
2018-11-20T16:08:11.425Z,18.00
2018-11-20T16:11:12.219Z,18.27
2018-11-20T16:14:04.281Z,17.73
2018-11-20T16:16:56.448Z,18.07
2018-11-20T16:19:48.742Z,17.57
2018-11-20T16:22:42.988Z,18.33
2018-11-20T16:25:40.033Z,18.03
2018-11-20T16:28:42.601Z,18.40
2018-11-20T16:31:13.147Z,17.40
2018-11-20T16:34:09.118Z,17.03
2018-11-20T16:37:02.833Z,17.30
2018-11-20T16:39:53.768Z,18.20
2018-11-20T16:42:46.887Z,17.53
2018-11-20T16:45:48.845Z,16.73
2018-11-20T16:48:42.346Z,16.73
2018-11-20T16:51:37.338Z,18.13
2018-11-20T16:54:39.877Z,17.97
2018-11-20T16:57:28.569Z,17.63
2018-11-20T17:00:36.341Z,17.83
2018-11-20T17:03:34.285Z,17.87
2018-11-20T17:06:22.823Z,19.10
2018-11-20T17:09:17.357Z,17.03
2018-11-20T17:12:10.112Z,17.63
2018-11-20T17:15:13.032Z,17.27
2018-11-20T17:18:24.312Z,18.07
2018-11-20T17:23:53.363Z,17.80
2018-11-20T17:26:44.572Z,16.67
2018-11-20T17:29:48.170Z,15.63
2018-11-20T17:32:21.130Z,15.30
2018-11-20T17:35:30.967Z,14.67
2018-11-20T17:38:19.906Z,15.53
2018-11-20T17:41:06.433Z,15.83
2018-11-20T17:44:08.521Z,15.03
2018-11-20T17:47:05.055Z,14.20
2018-11-20T17:49:56.738Z,13.23
2018-11-20T17:52:51.020Z,14.13
2018-11-20T17:55:43.034Z,13.33
2018-11-20T17:58:51.387Z,13.73
2018-11-20T18:01:47.497Z,13.43
2018-11-20T18:07:45.583Z,14.40
2018-11-20T18:10:38.834Z,14.77
2018-11-20T18:13:44.914Z,14.67
2018-11-20T18:16:36.754Z,15.57
2018-11-20T18:19:24.831Z,14.93
2018-11-20T18:22:37.624Z,14.53
2018-11-20T18:27:43.362Z,14.97
2018-11-20T18:30:45.254Z,15.90
2018-11-20T18:36:45.122Z,15.80
2018-11-20T18:42:20.837Z,16.20
2018-11-20T18:45:15.194Z,16.13
2018-11-20T18:48:09.013Z,15.73
2018-11-20T18:51:13.050Z,16.37
2018-11-20T18:54:10.732Z,16.50
2018-11-20T18:56:41.731Z,15.63
2018-11-20T18:59:33.061Z,17.00
2018-11-20T19:02:34.903Z,18.50
2018-11-20T19:05:48.472Z,17.03
2018-11-20T19:08:18.509Z,17.97
2018-11-20T19:11:17.965Z,19.30
2018-11-20T19:14:05.543Z,17.53
2018-11-20T19:16:54.231Z,17.30
2018-11-20T19:19:48.165Z,16.47
2018-11-20T19:22:35.325Z,17.13
2018-11-20T19:28:41.567Z,16.93
2018-11-20T19:31:53.046Z,17.63
2018-11-20T19:34:18.793Z,18.67
2018-11-20T19:37:25.248Z,17.37
2018-11-20T19:40:22.216Z,16.23
2018-11-20T19:43:20.730Z,17.87
2018-11-20T19:46:19.982Z,17.23
2018-11-20T19:49:07.596Z,17.07
2018-11-20T19:52:00.978Z,18.07
2018-11-20T19:54:50.552Z,17.40
2018-11-20T19:57:46.909Z,17.50
2018-11-20T20:00:40.506Z,17.50
2018-11-20T20:03:39.456Z,17.33
2018-11-20T20:06:31.941Z,17.63
2018-11-20T20:09:22.507Z,17.60
2018-11-20T20:12:18.369Z,16.80
2018-11-20T20:18:01.122Z,18.20
2018-11-20T20:20:51.488Z,17.10
2018-11-20T20:23:33.411Z,17.30
2018-11-20T20:26:23.804Z,16.20
2018-11-20T20:29:10.240Z,17.13
2018-11-20T20:32:03.650Z,17.13
2018-11-20T20:35:03.225Z,17.23
2018-11-20T20:37:56.720Z,17.10
2018-11-20T20:40:42.894Z,17.33
2018-11-20T20:43:33.443Z,18.47
2018-11-20T20:46:26.905Z,17.33
2018-11-20T20:49:14.460Z,17.67
2018-11-20T20:52:11.111Z,17.50
2018-11-20T20:55:07.643Z,18.10
2018-11-20T20:57:53.223Z,19.10
2018-11-20T21:00:39.743Z,17.63
2018-11-20T21:03:26.056Z,17.20
2018-11-20T21:06:05.094Z,16.33
2018-11-20T21:08:51.553Z,17.03
2018-11-20T21:11:42.126Z,16.07
2018-11-20T21:14:44.881Z,17.40
2018-11-20T21:17:28.483Z,16.67
2018-11-20T21:20:19.287Z,16.27
2018-11-20T21:23:09.560Z,16.43
2018-11-20T21:25:55.997Z,16.60
2018-11-20T21:28:43.604Z,17.50
2018-11-20T21:31:30.200Z,16.53
2018-11-20T21:34:23.492Z,15.77
2018-11-20T21:37:09.940Z,15.57
2018-11-20T21:39:56.172Z,15.80
2018-11-20T21:42:43.664Z,15.77
2018-11-20T21:45:30.007Z,15.30
2018-11-20T21:48:23.323Z,16.63
2018-11-20T21:51:13.652Z,15.70
2018-11-20T21:54:04.163Z,15.70
2018-11-20T21:56:57.836Z,16.33
2018-11-20T22:00:03.474Z,16.43
2018-11-20T22:02:51.156Z,15.97
2018-11-20T22:05:50.840Z,16.37
2018-11-20T22:08:37.164Z,15.30
2018-11-20T22:11:30.757Z,14.67
2018-11-20T22:14:08.811Z,16.30
2018-11-20T22:16:56.515Z,16.13
2018-11-20T22:19:44.859Z,16.20
2018-11-20T22:22:35.325Z,15.50
2018-11-20T22:25:22.930Z,15.67
2018-11-20T22:28:19.566Z,16.50
2018-11-20T22:31:07.198Z,16.27
2018-11-20T22:34:01.005Z,16.83
2018-11-20T22:36:48.346Z,16.10
2018-11-20T22:39:41.918Z,16.80
2018-11-20T22:42:28.394Z,16.80
2018-11-20T22:45:14.972Z,16.00
2018-11-20T22:48:00.480Z,16.80
2018-11-20T22:50:51.057Z,17.07
2018-11-20T22:53:37.666Z,16.37
2018-11-20T22:56:15.159Z,17.33
2018-11-20T22:58:51.795Z,17.43
2018-11-20T23:01:45.424Z,16.90
2018-11-20T23:04:43.471Z,17.37
2018-11-20T23:07:36.790Z,17.60
2018-11-20T23:10:05.317Z,16.23
2018-11-20T23:12:33.797Z,16.43
2018-11-20T23:15:02.226Z,17.83
2018-11-20T23:17:30.731Z,17.23
2018-11-20T23:19:59.209Z,18.80
2018-11-20T23:22:27.805Z,17.13
2018-11-20T23:24:56.220Z,17.47
2018-11-20T23:27:24.715Z,17.17
2018-11-20T23:29:53.167Z,18.30
2018-11-20T23:32:21.624Z,17.90
2018-11-20T23:34:50.063Z,17.93
2018-11-20T23:37:18.549Z,18.27
2018-11-20T23:39:47.018Z,19.33
2018-11-20T23:42:15.531Z,19.60
2018-11-20T23:44:43.978Z,20.23
2018-11-20T23:47:12.420Z,19.60
2018-11-20T23:49:40.884Z,21.40
2018-11-20T23:52:09.318Z,21.20
2018-11-20T23:54:37.832Z,20.93
2018-11-20T23:57:06.262Z,20.67
2018-11-20T23:59:34.697Z,20.80
